Terminal Aerodrome Forecast
Issued by NWS

Home | Current Version | Previous Version | Graphics & Text | Print | Product List | Glossary On
Versions: 1 2 3 4 5 6 7 8 9 10 11 12 13 14
000
FTUS43 KMPX 141100
TAFAXN
TAF
KAXN 141122Z 1412/1512 25008KT P6SM SKC
     FM141500 29012KT P6SM SCT060 SCT150
     FM150000 30004KT P6SM BKN150
     FM150900 33004KT P6SM BKN050=

USA.gov is the U.S. government's official web portal to all federal, state and local government web resources and services.